Carolina, PR (00979)

7:33 AM AST on February 11, 2016 (GMT -0400)
Manejo de Emergencias Carolina | | Change Station
CLOSE
Current Station
Personal Weather Station
Location: Carolina, PR
Elevation: 40 ft
Nearby Weather Stations
Active Advisory: Coastal Hazard Statement

Elev 40 ft 18.38 °N, 65.97 °W | Updated 3 seconds ago

Scattered Clouds
Scattered Clouds
67.6 °F
Feels Like 67.6 °F
N
0.0
Wind Variable Wind from ESE
Gusts 4.0 mph

Today
High -- | Low -- °F
--% Chance of Precip.
Yesterday
High -- | Low -- °F
Precip. -- in
Pressure 30.10 in
Visibility 10.0 miles
Clouds Few 2800 ft
Scattered Clouds 4500 ft
Dew Point 65 °F
Humidity 92%
Rainfall Not available.
Snow Depth Not available.
6:53 AM 6:22 PM
Waxing Crescent, 11% visible
METAR TJSJ 111056Z 00000KT 10SM FEW028 SCT045 23/20 A3010 RMK AO2 SLP191 T02330200
Pressure 30.10 in
Visibility 10.0 miles
Clouds Few 2800 ft
Scattered Clouds 4500 ft
Dew Point 65 °F
Humidity 92%
Rainfall Not available.
Snow Depth Not available.
6:53 AM 6:22 PM
Waxing Crescent, 11% visible
METAR TJSJ 111056Z 00000KT 10SM FEW028 SCT045 23/20 A3010 RMK AO2 SLP191 T02330200

10-Day Weather Forecast

Almanac

Astronomy

Feb. 11, 2016 Rise Set
Actual Time
Civil Twilight
Nautical Twilight
Astronomical Twilight
Moon
Length of Visible Light
Length of Day
Tomorrow will be .
, % of the Moon is Illuminated

Today's Extremes

State Highs State Lows

Community

WunderPhotos

Upload Photos

1,892,030 photos uploaded!

WunderBlog® & News

Nearby

Air Quality

  Air Quality AQ Index Pollutant
Not available.

Snow Depth

Station Depth Elevation

Earthquake Activity

City Distance Mag. Time & Date
Minimum magnitude displayed is 2.5.

Coastal Water Temperatures

Place Temperature

Stations

Nearby Weather Stations

Station Location Temp. Windchill Dew Point Humidity Wind Precip. Elev Updated Type
                   

Watches & Warnings

Coastal Hazard Statement
Issued: 4:30 AM AST Feb. 11, 2016 – National Weather Service

... High rip current risk remains in effect through this afternoon...

* location... north facing beaches of Puerto Rico... Culebra and
the northern U.S. Virgin Islands.

* Timing... through this afternoon.

* Impacts... large breaking waves will create strong rip currents.

Precautionary/preparedness actions...

There is a high risk of rip currents.

Rip currents are powerful channels of water flowing quickly away
from shore... which occur most often at low spots or breaks in The
Sandbar and in the vicinity of structures such as groins...
jetties and piers. Heed the advice of lifeguards... beach patrol
flags and signs.

If you become caught in a rip current... Yell for help. Remain
calm... do not exhaust yourself and stay afloat while waiting for
help. If you have to swim out of a rip current... swim parallel to
shore and back toward the beach when possible. Do not attempt to
swim directly against a rip current as you will tire quickly.